Time,TemperatureF,DewpointF,PressureIn,WindDirection,WindDirectionDegrees,WindSpeedMPH,WindSpeedGustMPH,Humidity,HourlyPrecipIn,Conditions,Clouds,dailyrainin,SoftwareType,DateUTC
2014-02-15 00:12:00,58.0,51.0,30.03,SW,222,4.0,7.0,77,0.00,,,0.00,,2014-02-15 05:12:00,
2014-02-15 00:22:00,57.0,50.0,30.03,WSW,255,5.0,8.0,78,0.00,,,0.00,,2014-02-15 05:22:00,
2014-02-15 00:43:00,57.0,51.0,30.02,WSW,248,3.0,8.0,79,0.00,,,0.00,,2014-02-15 05:43:00,
2014-02-15 00:53:00,56.0,50.0,30.02,WSW,243,4.0,7.0,81,0.00,,,0.00,,2014-02-15 05:53:00,
2014-02-15 01:12:00,56.0,50.0,30.02,SW,231,3.0,8.0,81,0.00,,,0.00,,2014-02-15 06:12:00,
2014-02-15 01:22:00,56.0,51.0,30.02,WSW,252,3.0,7.0,82,0.00,,,0.00,,2014-02-15 06:22:00,
2014-02-15 01:42:00,56.0,50.0,30.02,WSW,255,5.0,9.0,81,0.00,,,0.00,,2014-02-15 06:42:00,
2014-02-15 01:52:00,56.0,51.0,30.01,SW,232,3.0,7.0,83,0.00,,,0.00,,2014-02-15 06:52:00,
2014-02-15 02:12:00,56.0,51.0,30.01,WSW,253,5.0,10.0,82,0.00,,,0.00,,2014-02-15 07:12:00,
2014-02-15 02:22:00,56.0,51.0,30.01,WSW,256,5.0,9.0,84,0.00,,,0.00,,2014-02-15 07:22:00,
2014-02-15 02:42:00,55.0,50.0,30.00,WSW,249,4.0,9.0,84,0.00,,,0.00,,2014-02-15 07:42:00,
2014-02-15 02:52:00,55.0,51.0,30.00,West,263,4.0,8.0,85,0.00,,,0.00,,2014-02-15 07:52:00,
2014-02-15 03:12:00,55.0,51.0,30.00,WSW,249,4.0,8.0,85,0.00,,,0.00,,2014-02-15 08:12:00,
2014-02-15 03:22:00,55.0,51.0,29.99,WSW,249,4.0,7.0,87,0.00,,,0.00,,2014-02-15 08:22:00,
2014-02-15 03:42:00,55.0,51.0,30.00,SW,224,4.0,7.0,87,0.00,,,0.00,,2014-02-15 08:42:00,
2014-02-15 03:52:00,55.0,52.0,30.01,WNW,285,4.0,7.0,88,0.00,,,0.00,,2014-02-15 08:52:00,
2014-02-15 04:12:00,55.0,52.0,30.01,West,266,1.0,6.0,88,0.00,,,0.00,,2014-02-15 09:12:00,
2014-02-15 04:22:00,54.0,51.0,30.01,West,262,2.0,6.0,89,0.00,,,0.00,,2014-02-15 09:22:00,
2014-02-15 04:43:00,54.0,51.0,30.01,SSW,212,3.0,6.0,89,0.00,,,0.00,,2014-02-15 09:43:00,
2014-02-15 04:53:00,55.0,52.0,30.01,WSW,243,2.0,7.0,90,0.00,,,0.00,,2014-02-15 09:53:00,
2014-02-15 05:13:00,55.0,52.0,30.01,SW,222,3.0,6.0,90,0.00,,,0.00,,2014-02-15 10:13:00,
2014-02-15 05:23:00,55.0,52.0,30.01,West,267,4.0,7.0,89,0.00,,,0.00,,2014-02-15 10:23:00,
2014-02-15 05:43:00,55.0,52.0,30.02,WSW,243,2.0,6.0,89,0.00,,,0.00,,2014-02-15 10:43:00,
2014-02-15 10:42:00,69.0,61.0,30.08,WSW,250,10.0,18.0,75,0.00,,,0.00,,2014-02-15 15:42:00,
2014-02-15 10:52:00,71.0,62.0,30.08,WSW,252,5.0,22.0,74,0.00,,,0.00,,2014-02-15 15:52:00,
2014-02-15 11:12:00,71.0,60.0,30.07,SSW,204,10.0,17.0,68,0.00,,,0.00,,2014-02-15 16:12:00,
2014-02-15 11:23:00,71.0,60.0,30.07,WSW,238,9.0,18.0,68,0.00,,,0.00,,2014-02-15 16:23:00,
2014-02-15 11:44:00,72.0,61.0,30.06,West,259,9.0,20.0,68,0.00,,,0.00,,2014-02-15 16:44:00,
2014-02-15 11:54:00,73.0,61.0,30.06,SW,222,9.0,18.0,67,0.00,,,0.00,,2014-02-15 16:54:00,
2014-02-15 12:13:00,73.0,61.0,30.04,SW,218,11.0,21.0,65,0.00,,,0.00,,2014-02-15 17:13:00,
2014-02-15 12:23:00,74.0,59.0,30.04,WSW,254,11.0,19.0,60,0.00,,,0.00,,2014-02-15 17:23:00,
2014-02-15 12:43:00,75.0,59.0,30.04,WSW,248,12.0,21.0,58,0.00,,,0.00,,2014-02-15 17:43:00,
2014-02-15 12:53:00,76.0,60.0,30.04,WSW,242,12.0,19.0,58,0.00,,,0.00,,2014-02-15 17:53:00,
2014-02-15 13:12:00,75.0,58.0,30.03,NW,310,10.0,20.0,56,0.00,,,0.00,,2014-02-15 18:12:00,
2014-02-15 13:22:00,75.0,58.0,30.03,NW,326,8.0,16.0,56,0.00,,,0.00,,2014-02-15 18:22:00,
2014-02-15 13:43:00,75.0,58.0,30.03,NW,324,8.0,19.0,56,0.00,,,0.00,,2014-02-15 18:43:00,
2014-02-15 13:52:00,75.0,58.0,30.02,NW,310,8.0,19.0,56,0.00,,,0.00,,2014-02-15 18:52:00,
2014-02-15 14:12:00,76.0,59.0,30.02,West,278,8.0,19.0,55,0.00,,,0.00,,2014-02-15 19:12:00,
2014-02-15 14:22:00,77.0,59.0,30.01,WNW,298,9.0,16.0,53,0.00,,,0.00,,2014-02-15 19:22:00,
2014-02-15 14:42:00,77.0,59.0,30.02,WNW,291,6.0,18.0,53,0.00,,,0.00,,2014-02-15 19:42:00,
2014-02-15 14:52:00,76.0,58.0,30.01,WNW,291,8.0,21.0,54,0.00,,,0.00,,2014-02-15 19:52:00,
2014-02-15 15:11:00,76.0,59.0,30.01,NNW,329,9.0,16.0,55,0.00,,,0.00,,2014-02-15 20:11:00,
2014-02-15 15:22:00,77.0,59.0,30.01,WSW,242,10.0,19.0,53,0.00,,,0.00,,2014-02-15 20:22:00,
2014-02-15 15:42:00,76.0,58.0,30.01,North,7,5.0,18.0,53,0.00,,,0.00,,2014-02-15 20:42:00,
2014-02-15 15:53:00,75.0,58.0,30.02,NNW,338,10.0,15.0,56,0.00,,,0.00,,2014-02-15 20:53:00,
2014-02-15 16:12:00,76.0,58.0,30.02,WNW,291,6.0,17.0,54,0.00,,,0.00,,2014-02-15 21:12:00,
2014-02-15 16:22:00,75.0,58.0,30.03,NW,312,9.0,17.0,55,0.00,,,0.00,,2014-02-15 21:22:00,
2014-02-15 16:44:00,75.0,58.0,30.03,NNW,336,7.0,19.0,55,0.00,,,0.00,,2014-02-15 21:44:00,
2014-02-15 16:53:00,75.0,57.0,30.05,NNW,328,7.0,17.0,54,0.00,,,0.00,,2014-02-15 21:53:00,
2014-02-15 17:13:00,74.0,57.0,30.05,NW,321,10.0,20.0,55,0.00,,,0.00,,2014-02-15 22:13:00,
2014-02-15 17:23:00,74.0,56.0,30.06,NNW,329,8.0,16.0,54,0.00,,,0.00,,2014-02-15 22:23:00,
2014-02-15 17:43:00,73.0,55.0,30.06,NW,324,7.0,13.0,54,0.00,,,0.00,,2014-02-15 22:43:00,
2014-02-15 17:53:00,73.0,55.0,30.07,NW,307,9.0,17.0,54,0.00,,,0.00,,2014-02-15 22:53:00,
2014-02-15 18:12:00,73.0,55.0,30.07,NW,318,10.0,16.0,53,0.00,,,0.00,,2014-02-15 23:12:00,
2014-02-15 18:22:00,72.0,54.0,30.08,NW,316,7.0,15.0,53,0.00,,,0.00,,2014-02-15 23:22:00,
2014-02-15 18:42:00,71.0,54.0,30.08,NNW,330,6.0,12.0,55,0.00,,,0.00,,2014-02-15 23:42:00,
2014-02-15 18:53:00,70.0,52.0,30.09,NNW,329,9.0,15.0,53,0.00,,,0.00,,2014-02-15 23:53:00,
2014-02-15 19:12:00,70.0,53.0,30.09,NW,315,4.0,12.0,55,0.00,,,0.00,,2014-02-16 00:12:00,
2014-02-15 19:22:00,69.0,53.0,30.10,NW,326,3.0,8.0,57,0.00,,,0.00,,2014-02-16 00:22:00,
2014-02-15 19:42:00,69.0,54.0,30.10,NW,323,3.0,8.0,58,0.00,,,0.00,,2014-02-16 00:42:00,
2014-02-15 19:52:00,68.0,54.0,30.11,NW,310,3.0,8.0,60,0.00,,,0.00,,2014-02-16 00:52:00,
2014-02-15 20:11:00,67.0,54.0,30.11,NW,308,1.0,5.0,62,0.00,,,0.00,,2014-02-16 01:11:00,
2014-02-15 20:22:00,67.0,54.0,30.12,NNW,328,2.0,4.0,63,0.00,,,0.00,,2014-02-16 01:22:00,
2014-02-15 20:42:00,66.0,54.0,30.12,WNW,295,1.0,3.0,65,0.00,,,0.00,,2014-02-16 01:42:00,
2014-02-15 20:52:00,66.0,54.0,30.13,WNW,295,1.0,3.0,66,0.00,,,0.00,,2014-02-16 01:52:00,
2014-02-15 21:12:00,66.0,53.0,30.13,NW,319,6.0,9.0,62,0.00,,,0.00,,2014-02-16 02:12:00,
2014-02-15 21:22:00,65.0,52.0,30.13,NW,324,2.0,7.0,63,0.00,,,0.00,,2014-02-16 02:22:00,
2014-02-15 21:42:00,65.0,52.0,30.13,NW,321,4.0,8.0,63,0.00,,,0.00,,2014-02-16 02:42:00,
2014-02-15 21:53:00,64.0,48.0,30.13,NW,311,4.0,7.0,57,0.00,,,0.00,,2014-02-16 02:53:00,
2014-02-15 22:11:00,64.0,49.0,30.14,NW,324,3.0,7.0,59,0.00,,,0.00,,2014-02-16 03:11:00,
2014-02-15 22:22:00,63.0,49.0,30.14,NW,319,3.0,8.0,60,0.00,,,0.00,,2014-02-16 03:22:00,
2014-02-15 22:43:00,63.0,49.0,30.14,NNE,30,2.0,6.0,60,0.00,,,0.00,,2014-02-16 03:43:00,
2014-02-15 22:53:00,62.0,45.0,30.15,WNW,291,3.0,7.0,53,0.00,,,0.00,,2014-02-16 03:53:00,
2014-02-15 23:03:00,-999.0,-99.9,30.15,WNW,293,4.0,8.0,-999,0.00,,,0.00,,2014-02-16 04:03:00,
2014-02-15 23:14:00,62.0,43.0,30.15,WNW,293,4.0,8.0,50,0.00,,,0.00,,2014-02-16 04:14:00,
2014-02-15 23:23:00,61.0,42.0,30.15,NW,304,2.0,7.0,50,0.00,,,0.00,,2014-02-16 04:23:00,
2014-02-15 23:43:00,61.0,42.0,30.14,WNW,288,2.0,7.0,50,0.00,,,0.00,,2014-02-16 04:43:00,
2014-02-15 23:53:00,60.0,42.0,30.14,NNW,332,2.0,6.0,51,0.00,,,0.00,,2014-02-16 04:53:00,